Time;durP1;ratioP1;P1;durP2;ratioP2;P2;SDS_P1;SDS_P2;PMS_P1;PMS_P2;Temp;Humidity;BMP_temperature;BMP_pressure;BME280_temperature;BME280_humidity;BME280_pressure;Samples;Min_cycle;Max_cycle;Signal;HPM_P1;HPM_P2
2021/04/20 00:01:11;;;;;;;13.53;6.70;;;4.80;74.00;;;;;;5053824;28;20218;-86
2021/04/20 00:03:37;;;;;;;16.47;6.93;;;4.70;74.60;;;;;;5053848;28;20184;-86
2021/04/20 00:06:07;;;;;;;14.67;6.97;;;4.70;75.10;;;;;;5054787;28;20213;-86
2021/04/20 00:08:33;;;;;;;17.17;6.67;;;4.60;75.30;;;;;;5053388;28;20226;-86
2021/04/20 00:10:59;;;;;;;13.20;7.00;;;4.60;75.90;;;;;;5054448;28;20192;-86
2021/04/20 00:13:24;;;;;;;10.30;6.77;;;4.60;76.00;;;;;;5053301;28;20294;-86
2021/04/20 00:15:51;;;;;;;15.83;6.87;;;4.70;75.40;;;;;;5053278;28;20591;-85
2021/04/20 00:18:16;;;;;;;12.57;6.30;;;4.80;74.80;;;;;;5054467;28;20547;-85
2021/04/20 00:20:42;;;;;;;10.50;6.73;;;4.80;74.80;;;;;;5053257;28;20203;-84
2021/04/20 00:23:08;;;;;;;11.77;6.93;;;4.70;75.40;;;;;;5054559;28;20196;-84
2021/04/20 00:25:34;;;;;;;13.63;6.40;;;4.80;75.40;;;;;;5054681;28;20214;-84
2021/04/20 00:28:01;;;;;;;13.87;6.90;;;4.70;75.50;;;;;;5054331;28;20173;-84
2021/04/20 00:30:27;;;;;;;10.17;6.67;;;4.60;75.80;;;;;;5054293;28;20200;-84
2021/04/20 00:32:52;;;;;;;14.00;6.87;;;4.50;76.10;;;;;;5054463;28;20177;-85
2021/04/20 00:35:18;;;;;;;18.77;7.57;;;4.50;76.30;;;;;;5052945;28;20164;-85
2021/04/20 00:37:44;;;;;;;12.93;6.97;;;4.50;76.50;;;;;;5052882;28;20173;-85
2021/04/20 00:40:12;;;;;;;16.07;7.10;;;4.30;76.70;;;;;;5052716;28;20589;-85
2021/04/20 00:42:57;;;;;;;11.43;6.40;;;4.30;77.00;;;;;;5053983;28;20172;-85
2021/04/20 00:45:25;;;;;;;9.67;6.53;;;4.40;77.00;;;;;;5053973;28;20172;-85
2021/04/20 00:47:51;;;;;;;14.30;7.70;;;4.30;77.20;;;;;;5053988;28;20168;-85
2021/04/20 00:50:22;;;;;;;17.00;7.40;;;4.30;77.50;;;;;;5052593;28;20267;-85
2021/04/20 00:52:47;;;;;;;11.87;6.60;;;4.20;77.90;;;;;;5053981;28;20175;-85
2021/04/20 00:55:13;;;;;;;14.33;7.57;;;4.10;77.90;;;;;;5054066;28;20175;-85
2021/04/20 00:57:39;;;;;;;15.10;9.77;;;4.00;78.10;;;;;;5053849;28;20168;-85
2021/04/20 01:00:27;;;;;;;9.53;6.50;;;4.10;78.10;;;;;;5053665;28;20713;-85
2021/04/20 01:02:53;;;;;;;12.03;6.90;;;4.10;78.20;;;;;;5052037;28;20187;-85
2021/04/20 01:05:22;;;;;;;14.60;7.90;;;4.10;78.40;;;;;;5052621;28;20652;-85
2021/04/20 01:07:49;;;;;;;10.77;7.00;;;4.20;78.40;;;;;;5052321;28;20266;-85
2021/04/20 01:10:16;;;;;;;15.20;7.47;;;4.10;78.00;;;;;;5052134;28;20634;-85
2021/04/20 01:12:43;;;;;;;11.50;6.17;;;4.10;77.90;;;;;;5052224;28;20667;-85
2021/04/20 01:15:11;;;;;;;11.20;6.47;;;4.10;77.80;;;;;;5053498;28;20233;-85
2021/04/20 01:17:37;;;;;;;18.40;6.67;;;4.10;77.50;;;;;;5053661;28;20305;-85
2021/04/20 01:20:09;;;;;;;14.17;6.60;;;4.00;77.20;;;;;;5053599;28;20640;-86
2021/04/20 01:22:38;;;;;;;10.87;6.70;;;4.00;76.80;;;;;;5052876;28;20180;-86
2021/04/20 01:25:05;;;;;;;16.43;7.47;;;4.00;76.50;;;;;;5053290;28;20180;-85
2021/04/20 01:27:31;;;;;;;14.93;8.00;;;3.90;76.50;;;;;;5051944;28;20198;-85
2021/04/20 01:29:57;;;;;;;9.57;7.27;;;3.90;76.60;;;;;;5051950;28;20660;-85
2021/04/20 01:32:24;;;;;;;13.27;7.37;;;3.90;76.50;;;;;;5053245;28;20183;-85
2021/04/20 01:34:50;;;;;;;12.50;7.37;;;3.90;76.20;;;;;;5051880;28;20623;-85
2021/04/20 01:37:17;;;;;;;13.00;7.27;;;3.80;76.00;;;;;;5053257;28;20179;-85
2021/04/20 01:39:44;;;;;;;12.20;7.90;;;3.80;76.00;;;;;;5051927;28;20203;-85
2021/04/20 01:42:10;;;;;;;10.90;7.37;;;3.70;76.00;;;;;;5051872;28;20176;-85
2021/04/20 01:44:36;;;;;;;14.87;7.83;;;3.70;75.70;;;;;;5051993;28;20230;-85
2021/04/20 01:47:09;;;;;;;17.00;8.70;;;3.70;75.60;;;;;;5051817;28;20653;-86
2021/04/20 01:49:35;;;;;;;12.53;7.27;;;3.70;75.50;;;;;;5051792;28;20246;-85
2021/04/20 01:52:00;;;;;;;13.97;7.30;;;3.70;75.30;;;;;;5053383;28;20543;-85
2021/04/20 01:54:26;;;;;;;12.03;6.97;;;3.50;75.20;;;;;;5053013;28;20247;-85
2021/04/20 01:56:54;;;;;;;9.93;6.60;;;3.50;75.80;;;;;;5051844;28;20206;-85
2021/04/20 01:59:21;;;;;;;10.40;7.13;;;3.40;76.70;;;;;;5051533;28;20215;-85
2021/04/20 02:01:47;;;;;;;12.23;8.00;;;3.30;78.50;;;;;;5051692;28;20179;-85
2021/04/20 02:04:13;;;;;;;10.37;8.03;;;3.20;80.00;;;;;;5051743;28;20253;-85
2021/04/20 02:06:39;;;;;;;12.03;8.33;;;3.20;81.10;;;;;;5052948;28;20187;-85
2021/04/20 02:09:06;;;;;;;13.00;8.03;;;3.20;81.60;;;;;;5051637;28;20256;-85
2021/04/20 02:11:31;;;;;;;19.00;8.73;;;3.00;82.10;;;;;;5051821;28;20700;-85
2021/04/20 02:14:01;;;;;;;17.97;8.73;;;3.00;82.40;;;;;;5052843;28;20206;-85
2021/04/20 02:16:28;;;;;;;13.53;8.17;;;3.10;82.40;;;;;;5051578;28;20176;-85
2021/04/20 02:18:59;;;;;;;20.77;7.57;;;3.10;82.10;;;;;;5051378;28;20264;-85
2021/04/20 02:21:25;;;;;;;11.37;7.73;;;3.10;81.60;;;;;;5051546;28;20166;-85
2021/04/20 02:23:52;;;;;;;11.67;7.77;;;3.10;81.20;;;;;;5052763;28;20183;-85
2021/04/20 02:26:37;;;;;;;12.80;8.20;;;3.10;80.70;;;;;;5052766;28;20191;-85
2021/04/20 02:29:05;;;;;;;15.33;8.37;;;3.10;80.20;;;;;;5051423;28;20172;-85
2021/04/20 02:31:36;;;;;;;14.87;7.80;;;3.00;79.90;;;;;;5051378;28;20671;-85
2021/04/20 02:34:12;;;;;;;13.53;7.40;;;3.00;79.80;;;;;;5052647;28;20211;-85
2021/04/20 02:36:43;;;;;;;16.77;8.00;;;3.00;79.40;;;;;;5056447;28;20198;-85
2021/04/20 02:39:10;;;;;;;13.03;7.97;;;2.90;79.20;;;;;;5056347;28;20190;-85
2021/04/20 02:41:40;;;;;;;12.77;7.77;;;2.90;78.90;;;;;;5056258;28;20179;-85
2021/04/20 02:44:08;;;;;;;15.40;7.60;;;2.90;78.60;;;;;;5056639;28;20661;-85
2021/04/20 02:46:36;;;;;;;15.13;7.70;;;2.90;78.30;;;;;;5055043;28;20186;-85
2021/04/20 02:49:03;;;;;;;13.53;7.70;;;2.80;77.90;;;;;;5056135;28;20240;-85
2021/04/20 02:51:29;;;;;;;15.57;8.50;;;2.80;77.90;;;;;;5054905;28;20184;-85
2021/04/20 02:53:55;;;;;;;12.83;8.17;;;2.80;77.70;;;;;;5056028;28;20633;-85
2021/04/20 02:56:23;;;;;;;18.77;8.83;;;2.80;77.80;;;;;;5054854;28;20203;-85
2021/04/20 02:58:49;;;;;;;23.53;9.57;;;2.80;77.70;;;;;;5056051;28;20611;-85
2021/04/20 03:01:23;;;;;;;15.30;8.77;;;2.80;77.70;;;;;;5055983;28;20233;-85
2021/04/20 03:03:50;;;;;;;13.90;8.47;;;2.80;77.90;;;;;;5054802;28;20174;-85
2021/04/20 03:06:17;;;;;;;16.90;9.27;;;2.80;77.90;;;;;;5054619;28;20584;-85
2021/04/20 03:08:44;;;;;;;16.87;9.47;;;2.80;77.80;;;;;;5055150;28;20184;-85
2021/04/20 03:11:33;;;;;;;17.83;9.93;;;2.70;78.40;;;;;;5054424;28;20200;-85
2021/04/20 03:14:03;;;;;;;13.77;9.27;;;2.70;78.90;;;;;;5054490;28;20286;-85
2021/04/20 03:16:29;;;;;;;20.07;10.07;;;2.80;79.20;;;;;;5055704;28;20649;-85
2021/04/20 03:18:55;;;;;;;15.17;9.47;;;2.70;79.40;;;;;;5055563;28;20176;-85
2021/04/20 03:21:21;;;;;;;15.67;10.03;;;2.70;79.60;;;;;;5054319;28;20201;-85
2021/04/20 03:23:48;;;;;;;17.10;9.80;;;2.60;79.50;;;;;;5055612;28;20179;-85
2021/04/20 03:26:32;;;;;;;15.10;8.83;;;2.70;79.40;;;;;;5055690;28;20176;-85
2021/04/20 03:29:00;;;;;;;12.80;9.23;;;2.60;79.40;;;;;;5054166;28;20542;-85
2021/04/20 03:31:26;;;;;;;15.83;8.80;;;2.60;78.90;;;;;;5055835;28;20187;-85
2021/04/20 03:34:23;;;;;;;12.57;8.97;;;2.50;78.90;;;;;;5054012;28;20220;-85
2021/04/20 03:36:58;;;;;;;17.13;9.83;;;2.50;78.70;;;;;;5055377;28;20174;-85
2021/04/20 03:39:26;;;;;;;16.77;9.30;;;2.50;79.10;;;;;;5054049;28;20193;-85
2021/04/20 03:42:03;;;;;;;18.10;9.77;;;2.50;79.60;;;;;;5054036;28;20209;-85
2021/04/20 03:44:42;;;;;;;17.77;10.33;;;2.40;79.60;;;;;;5055292;28;20158;-85
2021/04/20 03:47:19;;;;;;;15.27;9.80;;;2.40;80.40;;;;;;5053545;28;20169;-85
2021/04/20 03:49:47;;;;;;;15.57;10.00;;;2.50;81.40;;;;;;5055221;28;20562;-85
2021/04/20 03:52:18;;;;;;;24.93;11.27;;;2.50;82.00;;;;;;5053861;28;20224;-85
2021/04/20 03:54:45;;;;;;;19.67;11.10;;;2.60;82.90;;;;;;5053670;28;20198;-85
2021/04/20 03:57:11;;;;;;;18.90;11.63;;;2.70;83.20;;;;;;5053639;28;20178;-85
2021/04/20 03:59:38;;;;;;;27.33;11.70;;;2.70;83.60;;;;;;5054870;28;20604;-85
2021/04/20 04:02:05;;;;;;;25.07;12.93;;;2.70;84.20;;;;;;5055258;28;20236;-85
2021/04/20 04:04:32;;;;;;;23.70;12.20;;;2.70;84.90;;;;;;5053528;28;20192;-85
2021/04/20 04:07:01;;;;;;;21.70;12.53;;;2.70;85.40;;;;;;5053754;28;20268;-85
2021/04/20 04:09:28;;;;;;;23.93;13.03;;;2.60;85.50;;;;;;5054509;28;20225;-85
2021/04/20 04:12:05;;;;;;;22.40;13.63;;;2.60;85.80;;;;;;5053381;28;20180;-85
2021/04/20 04:14:34;;;;;;;23.53;14.50;;;2.60;86.10;;;;;;5053207;28;20200;-85
2021/04/20 04:17:06;;;;;;;23.30;14.03;;;2.50;86.30;;;;;;5053284;28;20177;-85
2021/04/20 04:19:37;;;;;;;24.17;14.47;;;2.50;86.40;;;;;;5053460;28;20201;-85
2021/04/20 04:22:08;;;;;;;23.23;13.87;;;2.50;86.70;;;;;;5053306;28;20176;-85
2021/04/20 04:24:40;;;;;;;21.60;14.80;;;2.50;87.00;;;;;;5053228;28;20224;-85
2021/04/20 04:27:06;;;;;;;26.73;15.03;;;2.50;87.10;;;;;;5054621;28;20257;-85
2021/04/20 04:29:34;;;;;;;26.13;13.80;;;2.50;87.00;;;;;;5053020;28;20198;-85
2021/04/20 04:32:00;;;;;;;30.73;14.73;;;2.60;86.90;;;;;;5054337;28;20587;-85
2021/04/20 04:34:27;;;;;;;23.87;15.27;;;2.70;86.70;;;;;;5052912;28;20230;-85
2021/04/20 04:36:53;;;;;;;24.33;14.57;;;2.70;86.60;;;;;;5053065;28;20188;-85
2021/04/20 04:39:18;;;;;;;25.33;13.80;;;2.70;86.50;;;;;;5052925;28;20206;-85
2021/04/20 04:41:49;;;;;;;28.93;13.57;;;2.70;86.10;;;;;;5054003;28;20172;-85
2021/04/20 04:44:15;;;;;;;28.47;14.57;;;2.60;86.00;;;;;;5052876;28;20252;-85
2021/04/20 04:46:42;;;;;;;29.07;14.40;;;2.60;85.90;;;;;;5052637;28;20181;-85
2021/04/20 04:49:09;;;;;;;28.13;15.03;;;2.60;86.10;;;;;;5053773;28;20214;-85
2021/04/20 04:51:38;;;;;;;19.67;14.27;;;2.70;86.20;;;;;;5053934;28;20195;-85
2021/04/20 04:54:05;;;;;;;21.90;14.23;;;2.80;86.00;;;;;;5053902;28;20694;-85
2021/04/20 04:56:33;;;;;;;23.87;13.77;;;2.80;85.90;;;;;;5053763;28;20171;-85
2021/04/20 04:59:01;;;;;;;20.40;14.33;;;2.90;85.70;;;;;;5051844;28;20177;-85
2021/04/20 05:01:27;;;;;;;20.93;14.13;;;3.00;85.60;;;;;;5052576;28;20179;-85
2021/04/20 05:03:53;;;;;;;22.77;14.57;;;3.10;85.50;;;;;;5053751;28;20186;-85
2021/04/20 05:06:20;;;;;;;27.10;14.93;;;3.30;85.50;;;;;;5053643;28;20261;-85
2021/04/20 05:08:46;;;;;;;23.53;14.40;;;3.50;85.40;;;;;;5053558;28;20641;-85
2021/04/20 05:11:14;;;;;;;23.37;14.17;;;3.60;85.30;;;;;;5052200;28;20209;-85
2021/04/20 05:13:39;;;;;;;25.50;14.20;;;3.70;85.40;;;;;;5052237;28;20204;-85
2021/04/20 05:16:06;;;;;;;26.23;13.50;;;3.80;85.70;;;;;;5053794;28;20181;-85
2021/04/20 05:18:34;;;;;;;23.60;14.63;;;3.80;85.70;;;;;;5053474;28;20172;-85
2021/04/20 05:21:00;;;;;;;17.30;13.30;;;4.00;85.60;;;;;;5053414;28;20198;-85
2021/04/20 05:23:26;;;;;;;22.80;13.67;;;4.00;85.30;;;;;;5052088;28;20184;-85
2021/04/20 05:25:52;;;;;;;20.47;13.70;;;4.20;85.10;;;;;;5052103;28;20191;-86
2021/04/20 05:28:22;;;;;;;25.03;12.30;;;4.20;84.90;;;;;;5053342;28;20589;-85
2021/04/20 05:30:48;;;;;;;20.90;12.63;;;4.30;84.80;;;;;;5053249;28;20226;-86
2021/04/20 05:33:15;;;;;;;39.70;13.47;;;4.40;84.60;;;;;;5053157;28;20295;-85
2021/04/20 05:35:42;;;;;;;35.20;13.00;;;4.50;84.40;;;;;;5053215;28;20168;-85
2021/04/20 05:38:07;;;;;;;26.53;13.23;;;4.60;84.40;;;;;;5053425;28;20199;-85
2021/04/20 05:40:37;;;;;;;23.77;14.53;;;4.60;84.20;;;;;;5051795;28;20207;-85
2021/04/20 05:43:05;;;;;;;23.13;12.33;;;4.70;84.40;;;;;;5052671;28;20270;-83
2021/04/20 05:45:31;;;;;;;23.17;12.80;;;4.80;84.20;;;;;;5053371;28;20578;-83
2021/04/20 05:47:58;;;;;;;24.70;12.07;;;4.80;84.40;;;;;;5051955;28;20184;-83
2021/04/20 05:50:29;;;;;;;26.97;12.67;;;5.00;84.30;;;;;;5053160;28;20610;-83
2021/04/20 05:52:56;;;;;;;27.67;13.10;;;5.10;84.10;;;;;;5051728;28;20186;-84
2021/04/20 05:55:22;;;;;;;27.60;12.43;;;5.20;83.80;;;;;;5051831;28;20191;-83
2021/04/20 05:57:50;;;;;;;28.57;11.90;;;5.20;83.40;;;;;;5051828;28;20654;-83
2021/04/20 06:00:17;;;;;;;24.73;13.13;;;5.30;83.20;;;;;;5052796;28;20681;-83
2021/04/20 06:02:46;;;;;;;23.20;11.63;;;5.40;83.10;;;;;;5051714;28;20176;-83
2021/04/20 06:05:14;;;;;;;27.47;11.87;;;5.50;82.90;;;;;;5052362;28;20234;-83
2021/04/20 06:07:44;;;;;;;24.73;12.33;;;5.50;82.70;;;;;;5053159;28;20164;-83
2021/04/20 06:10:11;;;;;;;18.43;10.57;;;5.70;82.60;;;;;;5056584;28;20237;-83
2021/04/20 06:12:38;;;;;;;20.47;11.67;;;5.80;82.40;;;;;;5055991;28;20192;-84
2021/04/20 06:15:05;;;;;;;27.53;10.33;;;5.80;82.40;;;;;;5057076;28;20660;-83
2021/04/20 06:17:33;;;;;;;21.57;11.50;;;5.90;81.90;;;;;;5055562;28;20178;-83
2021/04/20 06:20:00;;;;;;;23.23;12.68;;;6.00;82.50;;;;;;5056342;28;20878;-83
2021/04/20 06:22:26;;;;;;;19.87;11.47;;;6.10;81.90;;;;;;5057567;28;20193;-83
2021/04/20 06:24:53;;;;;;;17.27;10.70;;;6.20;82.10;;;;;;5056784;28;20549;-83
2021/04/20 06:27:18;;;;;;;17.67;10.23;;;6.30;81.00;;;;;;5056555;28;20178;-83
2021/04/20 06:29:44;;;;;;;15.40;10.03;;;6.40;80.50;;;;;;5056501;28;20198;-82
2021/04/20 06:32:12;;;;;;;25.13;10.43;;;6.50;80.50;;;;;;5055498;28;20641;-83
2021/04/20 06:34:38;;;;;;;20.83;10.27;;;6.60;80.50;;;;;;5056371;28;20232;-83
2021/04/20 06:37:09;;;;;;;17.93;9.83;;;6.70;81.10;;;;;;5055171;28;20265;-83
2021/04/20 06:39:37;;;;;;;15.60;9.50;;;6.80;80.70;;;;;;5056600;28;20197;-84
2021/04/20 06:42:06;;;;;;;16.47;9.10;;;6.90;80.00;;;;;;5055903;28;20177;-84
2021/04/20 06:44:41;;;;;;;23.50;8.60;;;7.00;78.70;;;;;;5056325;28;20519;-83
2021/04/20 06:47:20;;;;;;;17.13;7.97;;;7.30;78.40;;;;;;5056394;28;20639;-83
2021/04/20 06:49:56;;;;;;;14.73;7.60;;;7.40;77.50;;;;;;5056162;28;20243;-83
2021/04/20 06:52:38;;;;;;;12.00;6.27;;;7.60;76.10;;;;;;5056171;28;20245;-83
2021/04/20 06:55:17;;;;;;;11.80;7.13;;;7.70;75.10;;;;;;5054840;28;20200;-83
2021/04/20 06:58:16;;;;;;;12.50;6.20;;;7.90;74.30;;;;;;5054854;28;20171;-82
2021/04/20 07:00:55;;;;;;;13.53;7.30;;;8.00;74.00;;;;;;5038284;28;20226;-83
2021/04/20 07:03:51;;;;;;;21.73;7.63;;;8.10;74.20;;;;;;5055293;28;20196;-83
2021/04/20 07:06:29;;;;;;;15.57;6.80;;;8.30;74.40;;;;;;5054603;28;20192;-84
2021/04/20 07:09:01;;;;;;;18.40;6.80;;;8.30;72.30;;;;;;5055890;28;20152;-82
2021/04/20 07:11:32;;;;;;;11.50;6.80;;;8.40;71.00;;;;;;5056007;28;20156;-82
2021/04/20 07:13:59;;;;;;;11.43;6.50;;;8.50;72.30;;;;;;5054523;28;20212;-82
2021/04/20 07:16:33;;;;;;;9.07;5.90;;;8.60;70.30;;;;;;5054529;28;20641;-82
2021/04/20 07:19:05;;;;;;;10.07;6.70;;;8.70;71.30;;;;;;5055715;28;20214;-84
2021/04/20 07:22:13;;;;;;;15.10;5.93;;;9.00;71.40;;;;;;5053580;28;20209;-84
2021/04/20 07:24:41;;;;;;;13.77;5.63;;;9.00;68.50;;;;;;5045532;28;20180;-84
2021/04/20 07:27:14;;;;;;;9.63;6.10;;;9.10;67.50;;;;;;5055553;28;20179;-84
2021/04/20 07:30:01;;;;;;;11.03;6.13;;;9.20;71.00;;;;;;5055866;28;20192;-84
2021/04/20 07:32:45;;;;;;;11.70;7.10;;;9.30;66.90;;;;;;5055548;28;20165;-83
2021/04/20 07:35:28;;;;;;;12.07;5.27;;;9.50;69.70;;;;;;5055639;28;20196;-84
2021/04/20 07:37:53;;;;;;;12.20;6.33;;;9.60;67.60;;;;;;5055602;28;20512;-85
2021/04/20 07:40:46;;;;;;;14.67;5.97;;;9.70;67.60;;;;;;5053996;28;20241;-85
2021/04/20 07:43:14;;;;;;;13.57;5.97;;;9.80;66.60;;;;;;5054016;28;20164;-84
2021/04/20 07:46:07;;;;;;;12.00;5.47;;;10.00;68.00;;;;;;5055211;28;20169;-85
2021/04/20 07:48:42;;;;;;;9.90;5.87;;;10.10;66.90;;;;;;5053994;28;20172;-85
2021/04/20 07:51:09;;;;;;;11.73;6.10;;;10.30;66.30;;;;;;5055156;28;20702;-84
2021/04/20 07:53:43;;;;;;;11.93;5.70;;;10.40;63.30;;;;;;5053774;28;20658;-84
2021/04/20 07:56:21;;;;;;;11.27;5.00;;;10.50;64.70;;;;;;5053741;28;20177;-84
2021/04/20 07:58:50;;;;;;;10.20;5.23;;;10.70;62.10;;;;;;5054994;28;20159;-84
2021/04/20 08:01:47;;;;;;;9.70;5.93;;;10.80;61.10;;;;;;5053531;28;20188;-85
2021/04/20 08:04:40;;;;;;;9.83;4.57;;;10.90;61.80;;;;;;5052939;28;20218;-84
2021/04/20 08:07:38;;;;;;;11.50;4.47;;;10.90;59.40;;;;;;5052392;28;20199;-84
2021/04/20 08:10:08;;;;;;;10.13;4.87;;;11.00;61.70;;;;;;5042630;28;20208;-84
2021/04/20 08:12:48;;;;;;;7.37;4.60;;;11.00;58.80;;;;;;5053476;28;20544;-84
2021/04/20 08:15:20;;;;;;;7.90;4.50;;;11.10;58.50;;;;;;5054607;28;20650;-84
2021/04/20 08:18:08;;;;;;;8.60;4.23;;;11.20;60.40;;;;;;5053380;28;20724;-84
2021/04/20 08:20:35;;;;;;;10.33;4.60;;;11.30;55.70;;;;;;5054579;28;20180;-84
2021/04/20 08:23:03;;;;;;;10.07;4.43;;;11.60;60.90;;;;;;5053279;28;20181;-84
2021/04/20 08:25:44;;;;;;;8.53;5.00;;;11.70;58.60;;;;;;5053214;28;20183;-85
2021/04/20 08:28:16;;;;;;;9.63;4.43;;;11.80;57.40;;;;;;5054459;28;20167;-84
2021/04/20 08:31:00;;;;;;;15.37;5.43;;;11.70;57.60;;;;;;5054463;28;20187;-85
2021/04/20 08:33:30;;;;;;;11.57;4.47;;;11.80;55.70;;;;;;5054115;28;20191;-84
2021/04/20 08:35:58;;;;;;;11.17;4.37;;;12.00;56.40;;;;;;5053126;28;20199;-85
2021/04/20 08:38:48;;;;;;;8.37;4.63;;;12.30;57.70;;;;;;5054223;28;20176;-84
2021/04/20 08:41:20;;;;;;;9.23;3.83;;;12.40;54.10;;;;;;5052830;28;20198;-85
2021/04/20 08:44:18;;;;;;;7.23;4.00;;;12.60;53.70;;;;;;5052981;28;20217;-85
2021/04/20 08:47:03;;;;;;;9.60;3.50;;;12.70;55.60;;;;;;5054422;28;20573;-85
2021/04/20 08:49:45;;;;;;;6.47;4.00;;;12.90;50.90;;;;;;5053938;28;20198;-86
2021/04/20 08:52:38;;;;;;;7.97;4.33;;;13.00;51.10;;;;;;5052766;28;20259;-86
2021/04/20 08:55:10;;;;;;;6.23;4.30;;;12.90;54.60;;;;;;5054243;28;20188;-86
2021/04/20 08:57:57;;;;;;;6.30;3.77;;;13.20;54.30;;;;;;5053733;28;20174;-86
2021/04/20 09:00:45;;;;;;;8.43;3.17;;;13.20;50.60;;;;;;5053654;28;20229;-86
2021/04/20 09:03:43;;;;;;;6.53;3.20;;;13.30;51.40;;;;;;5052514;28;20164;-86
2021/04/20 09:06:16;;;;;;;12.33;3.33;;;13.40;51.50;;;;;;5053687;28;20192;-85
2021/04/20 09:08:50;;;;;;;4.80;2.80;;;13.50;52.20;;;;;;5053976;28;20157;-85
2021/04/20 09:11:26;;;;;;;6.03;2.93;;;13.70;45.50;;;;;;5052509;28;20198;-85
2021/04/20 09:14:00;;;;;;;6.77;3.30;;;13.80;48.30;;;;;;5053476;28;20192;-86
2021/04/20 09:16:51;;;;;;;6.40;3.07;;;13.80;48.60;;;;;;5052254;28;20168;-86
2021/04/20 09:19:29;;;;;;;6.37;2.63;;;13.90;43.30;;;;;;5053594;28;20275;-86
2021/04/20 09:22:07;;;;;;;4.20;2.60;;;13.80;44.40;;;;;;5052351;28;20178;-85
2021/04/20 09:24:57;;;;;;;5.90;2.90;;;13.90;44.80;;;;;;5053448;28;20625;-86
2021/04/20 09:27:55;;;;;;;5.80;2.67;;;13.80;45.60;;;;;;5053594;28;20158;-86
2021/04/20 09:30:22;;;;;;;7.43;2.80;;;14.20;46.40;;;;;;5052104;28;20568;-85
2021/04/20 09:33:07;;;;;;;7.07;3.00;;;14.30;44.00;;;;;;5052017;28;20176;-86
2021/04/20 09:35:35;;;;;;;8.10;2.20;;;14.30;43.20;;;;;;5052002;28;20615;-86
2021/04/20 09:38:02;;;;;;;4.10;2.40;;;14.50;43.20;;;;;;5051993;28;20639;-85
2021/04/20 09:40:30;;;;;;;4.60;2.40;;;14.30;41.60;;;;;;5051838;28;20191;-85
2021/04/20 09:43:03;;;;;;;4.53;2.80;;;14.30;42.10;;;;;;5051646;28;20638;-86
2021/04/20 09:45:49;;;;;;;5.97;2.80;;;14.40;40.90;;;;;;5051953;28;20222;-86
2021/04/20 09:48:38;;;;;;;5.27;3.03;;;14.50;40.90;;;;;;5053197;28;20184;-86
2021/04/20 09:51:20;;;;;;;8.10;3.03;;;14.70;39.50;;;;;;5051720;28;20592;-86
2021/04/20 09:53:51;;;;;;;12.10;3.10;;;14.80;39.40;;;;;;5051706;28;20203;-85
2021/04/20 09:56:43;;;;;;;10.47;3.23;;;14.70;37.30;;;;;;5051985;28;20243;-86
2021/04/20 09:59:35;;;;;;;3.80;2.73;;;14.80;40.10;;;;;;5051799;28;20564;-84
2021/04/20 10:02:22;;;;;;;6.77;3.20;;;15.00;37.40;;;;;;5053184;28;20172;-85
2021/04/20 10:05:12;;;;;;;5.13;2.70;;;15.20;39.40;;;;;;5053061;28;20235;-84
2021/04/20 10:08:07;;;;;;;6.30;2.67;;;15.10;38.10;;;;;;5053367;28;20239;-84
2021/04/20 10:11:21;;;;;;;5.47;2.67;;;15.30;40.10;;;;;;5051662;28;20200;-83
2021/04/20 10:14:11;;;;;;;4.67;2.60;;;15.50;41.30;;;;;;5030820;28;20196;-84
2021/04/20 10:16:52;;;;;;;4.80;2.37;;;15.30;38.70;;;;;;5051994;28;20657;-83
2021/04/20 10:19:59;;;;;;;4.27;3.20;;;15.40;37.80;;;;;;5052790;28;20645;-86
2021/04/20 10:22:47;;;;;;;5.70;2.80;;;15.20;37.10;;;;;;5040644;28;20184;-86
2021/04/20 10:25:13;;;;;;;7.07;3.27;;;15.30;36.70;;;;;;5051690;28;20168;-85
2021/04/20 10:27:41;;;;;;;4.10;2.50;;;15.30;35.20;;;;;;5052634;28;20179;-85
2021/04/20 10:30:15;;;;;;;7.03;3.50;;;15.70;38.20;;;;;;5052897;28;20219;-86
2021/04/20 10:32:52;;;;;;;5.53;2.73;;;15.60;36.00;;;;;;5051533;28;20168;-86
2021/04/20 10:35:21;;;;;;;6.53;2.63;;;15.60;40.40;;;;;;5052685;28;20195;-86
2021/04/20 10:37:54;;;;;;;4.80;3.00;;;15.60;35.30;;;;;;5053057;28;20199;-86
2021/04/20 10:40:34;;;;;;;13.53;2.70;;;15.50;36.20;;;;;;5051418;28;20193;-86
2021/04/20 10:43:15;;;;;;;4.37;2.80;;;15.70;39.40;;;;;;5051521;28;20634;-86
2021/04/20 10:45:41;;;;;;;6.70;2.67;;;15.80;37.80;;;;;;5052643;28;20188;-86
2021/04/20 10:48:15;;;;;;;6.33;2.97;;;15.70;35.10;;;;;;5052864;28;20172;-86
2021/04/20 10:50:47;;;;;;;5.77;2.50;;;15.70;36.60;;;;;;5051308;28;20196;-86
2021/04/20 10:53:17;;;;;;;6.60;2.47;;;15.70;36.30;;;;;;5051387;28;20172;-86
2021/04/20 10:55:48;;;;;;;4.40;2.57;;;15.70;34.00;;;;;;5052401;28;20175;-86
2021/04/20 10:58:21;;;;;;;9.07;2.70;;;15.70;35.30;;;;;;5056284;28;20152;-86
2021/04/20 11:00:50;;;;;;;7.60;2.40;;;15.70;33.90;;;;;;5056087;28;20334;-86
2021/04/20 11:03:31;;;;;;;3.17;2.17;;;15.80;32.20;;;;;;5054734;28;20222;-86
2021/04/20 11:05:57;;;;;;;6.30;2.63;;;15.80;30.50;;;;;;5056089;28;20171;-86
2021/04/20 11:08:43;;;;;;;6.20;2.83;;;15.80;34.20;;;;;;5055944;28;20172;-86
2021/04/20 11:11:20;;;;;;;5.77;2.47;;;15.90;33.90;;;;;;5056082;28;20189;-85
2021/04/20 11:13:47;;;;;;;4.53;2.60;;;15.90;30.90;;;;;;5055774;28;20205;-85
2021/04/20 11:16:17;;;;;;;4.33;2.97;;;16.00;32.00;;;;;;5054496;28;20259;-86
2021/04/20 11:18:47;;;;;;;7.00;2.73;;;16.00;34.90;;;;;;5054499;28;20218;-83
2021/04/20 11:21:19;;;;;;;3.67;2.23;;;16.20;33.50;;;;;;5054531;28;20191;-83
2021/04/20 11:23:53;;;;;;;3.93;2.30;;;16.20;33.40;;;;;;5055637;28;20160;-83
2021/04/20 11:26:20;;;;;;;4.83;2.93;;;16.00;32.10;;;;;;5054328;28;20179;-83
2021/04/20 11:28:54;;;;;;;5.20;2.83;;;15.90;34.00;;;;;;5055561;28;20196;-83
2021/04/20 11:31:19;;;;;;;6.60;3.55;;;16.20;32.30;;;;;;5056055;28;20637;-84
2021/04/20 11:33:53;;;;;;;8.07;3.07;;;16.30;33.60;;;;;;5055314;28;20196;-83
2021/04/20 11:36:38;;;;;;;4.33;2.30;;;16.30;31.80;;;;;;5055731;28;20610;-83
2021/04/20 11:39:09;;;;;;;3.50;2.63;;;16.40;30.90;;;;;;5054313;28;20572;-83
2021/04/20 11:41:58;;;;;;;8.35;2.80;;;16.30;32.50;;;;;;5053988;28;20164;-83
2021/04/20 11:44:26;;;;;;;3.95;2.55;;;16.40;34.00;;;;;;5054805;28;20172;-83
2021/04/20 11:46:52;;;;;;;5.72;3.08;;;16.50;33.80;;;;;;5055524;28;20255;-83
2021/04/20 11:49:28;;;;;;;3.75;2.38;;;16.60;32.70;;;;;;5054336;28;20200;-84
2021/04/20 11:51:55;;;;;;;5.15;2.50;;;16.50;30.70;;;;;;5053838;28;20179;-83
2021/04/20 11:54:26;;;;;;;4.40;2.35;;;16.60;31.60;;;;;;5053846;28;20266;-83
2021/04/20 11:56:58;;;;;;;9.32;3.22;;;16.70;32.70;;;;;;5055389;28;20181;-84
2021/04/20 11:59:24;;;;;;;5.45;2.80;;;16.70;33.60;;;;;;5054936;28;20214;-83
2021/04/20 12:01:50;;;;;;;3.88;2.60;;;16.70;33.90;;;;;;5054886;28;20244;-83
2021/04/20 12:04:23;;;;;;;6.07;3.00;;;16.40;34.40;;;;;;5053699;28;20179;-83
2021/04/20 12:06:50;;;;;;;4.82;2.85;;;16.60;34.40;;;;;;5054789;28;20184;-83
2021/04/20 12:09:20;;;;;;;8.70;2.72;;;16.50;32.80;;;;;;5053530;28;20200;-83
2021/04/20 12:11:47;;;;;;;9.57;2.70;;;16.80;33.70;;;;;;5054695;28;20172;-83
2021/04/20 12:14:17;;;;;;;5.85;2.75;;;16.70;31.00;;;;;;5053345;28;20314;-83
2021/04/20 12:16:44;;;;;;;8.40;2.58;;;17.00;33.20;;;;;;5053716;28;20165;-83
2021/04/20 12:19:14;;;;;;;3.97;2.38;;;17.00;31.70;;;;;;5054574;28;20717;-83
2021/04/20 12:21:45;;;;;;;6.60;2.70;;;16.90;31.50;;;;;;5055136;28;20498;-83
2021/04/20 12:24:16;;;;;;;7.00;2.90;;;16.90;33.60;;;;;;5054907;28;20526;-83
2021/04/20 12:26:44;;;;;;;7.50;2.90;;;17.20;32.90;;;;;;5053340;28;20172;-83
2021/04/20 12:29:14;;;;;;;5.90;2.88;;;17.10;34.10;;;;;;5053075;28;20681;-84
2021/04/20 12:31:40;;;;;;;5.88;3.40;;;17.10;32.60;;;;;;5054740;28;20191;-83
2021/04/20 12:34:06;;;;;;;7.38;3.00;;;17.10;35.00;;;;;;5054200;28;20206;-83
2021/04/20 12:36:45;;;;;;;4.40;2.65;;;16.90;33.80;;;;;;5052974;28;20180;-83
2021/04/20 12:39:13;;;;;;;4.50;2.90;;;16.90;33.40;;;;;;5054497;28;20331;-83
2021/04/20 12:41:41;;;;;;;9.35;3.30;;;16.90;36.70;;;;;;5054569;28;20573;-83
2021/04/20 12:44:13;;;;;;;6.38;3.08;;;17.10;30.90;;;;;;5054207;28;20549;-83
2021/04/20 12:46:41;;;;;;;9.55;3.30;;;17.40;32.60;;;;;;5053066;28;20274;-83
2021/04/20 12:49:07;;;;;;;7.50;2.92;;;17.30;31.70;;;;;;5054100;28;20204;-84
2021/04/20 12:51:38;;;;;;;5.00;3.00;;;17.50;33.60;;;;;;5054314;28;20538;-84
2021/04/20 12:54:08;;;;;;;7.07;3.20;;;18.10;33.30;;;;;;5053881;28;20198;-84
2021/04/20 12:56:37;;;;;;;5.63;2.85;;;18.60;34.40;;;;;;5052587;28;20168;-84
2021/04/20 12:59:05;;;;;;;4.88;2.83;;;18.70;31.90;;;;;;5053759;28;20168;-84
2021/04/20 13:01:32;;;;;;;7.05;2.83;;;18.80;30.10;;;;;;5052964;28;20546;-84
2021/04/20 13:03:58;;;;;;;3.33;2.53;;;18.70;31.30;;;;;;5052417;28;20176;-84
2021/04/20 13:06:26;;;;;;;5.13;2.60;;;18.30;32.10;;;;;;5052492;28;20172;-83
2021/04/20 13:08:56;;;;;;;5.32;3.05;;;17.80;33.20;;;;;;5054003;28;20222;-84